PGUM Airport Information

Runway Information
Runway 06L Length 10015 ft width 150 ft
Elevation 239 ft Threshold 0 ft Heading 65
Runway 24R Length 10015 ft Width 150 ft
Elevation 297 ft Threshold 0 ft Heading 245
Runway 06R Length 8001 ft width 150 ft
Elevation 231 ft Threshold 0 ft Heading 65
Runway 24L Length 8001 ft Width 150 ft
Elevation 284 ft Threshold 0 ft Heading 245
Airport Frequencies
Type A/D Name APP/DEP Frequency 118.7 MHZ
Type ARTC Name GUAM CERAP Frequency 120.5 MHZ
Type ATIS Name ATIS Frequency 119 MHZ
Type CLD Name CLNC DEL Frequency 121.9 MHZ
Type GND Name GND Frequency 121.9 MHZ
Type RMP Name RAMP Frequency 121.6 MHZ
Type TWR Name AGANA TWR Frequency 118.1 MHZ
Airport Navaids
Type NDB Name Mt Macajna Frequency 385 KHZ
Type VORTAC Name Nimitz Frequency 115300 KHZ
Airport Weather Information & NOTAM
ADDS - METARS form results

(2353 UTC 24 March 2019)
Data provider http://aviationweather.gov/metar/data/
 
METAR text: PGUM 242344Z 04018G24KT 10SM SCT023 30/22 A2998 RMK AO2 T03000222
Conditions at: PGUM (AGANA , GU, US) observed 2344 UTC 24 March 2019
Temperature: 30.0°C (86°F)
Dewpoint: 22.2°C (72°F) [RH = 63%]
Pressure (altimeter): 29.98 inches Hg (1015.3 mb)
Winds: from the NE (40 degrees) at 21 MPH (18 knots; 9.3 m/s)
gusting to 28 MPH (24 knots; 12.3 m/s)
Visibility: 10 or more miles (16+ km)
Ceiling: at least 12,000 feet AGL
Clouds: scattered clouds at 2300 feet AGL
Weather: no significant weather observed at this time

METAR text: PGUM 242335Z 06016KT 10SM BKN023 30/22 A2998 RMK AO2 T03000222
Conditions at: PGUM (AGANA , GU, US) observed 2335 UTC 24 March 2019
Temperature: 30.0°C (86°F)
Dewpoint: 22.2°C (72°F) [RH = 63%]
Pressure (altimeter): 29.98 inches Hg (1015.3 mb)
Winds: from the ENE (60 degrees) at 18 MPH (16 knots; 8.2 m/s)
Visibility: 10 or more miles (16+ km)
Ceiling: 2300 feet AGL
Clouds: broken clouds at 2300 feet AGL
Weather: no significant weather observed at this time

METAR text: PGUM 242254Z 05017KT 10SM SCT021 29/22 A2997 RMK AO2 SLP141 T02940222
Conditions at: PGUM (AGANA , GU, US) observed 2254 UTC 24 March 2019
Temperature: 29.4°C (85°F)
Dewpoint: 22.2°C (72°F) [RH = 65%]
Pressure (altimeter): 29.97 inches Hg (1015.0 mb)
[Sea-level pressure: 1014.1 mb]
Winds: from the NE (50 degrees) at 20 MPH (17 knots; 8.7 m/s)
Visibility: 10 or more miles (16+ km)
Ceiling: at least 12,000 feet AGL
Clouds: scattered clouds at 2100 feet AGL
Weather: no significant weather observed at this time

Forecast for: PGUM (AGANA , GU, US)
Text: PGUM 242340Z 2500/2606 05018G25KT P6SM FEW020 SCT050
Forecast period: 0000 to 0800 UTC 25 March 2019
Forecast type: FROM: standard forecast or significant change
Winds: from the NE (50 degrees) at 21 MPH (18 knots; 9.3 m/s)
gusting to 29 MPH (25 knots; 12.9 m/s)
Visibility: 6 or more miles 10+ km)
Ceiling: at least 12,000 feet AGL
Clouds: few clouds at 2000 feet AGL
scattered clouds at 5000 feet AGL
Weather: no significant weather forecast for this period
Text: FM250800 06012KT P6SM VCSH FEW020 SCT050
Forecast period: 0800 to 2300 UTC 25 March 2019
Forecast type: FROM: standard forecast or significant change
Winds: from the ENE (60 degrees) at 14 MPH (12 knots; 6.2 m/s)
Visibility: 6 or more miles 10+ km)
Ceiling: at least 12,000 feet AGL
Clouds: few clouds at 2000 feet AGL
scattered clouds at 5000 feet AGL
Weather: VCSH  (showers in vicinity)
Text: FM252300 09016KT P6SM FEW020 SCT040
Forecast period: 2300 UTC 25 March 2019 to 0600 UTC 26 March 2019
Forecast type: FROM: standard forecast or significant change
Winds: from the E (90 degrees) at 18 MPH (16 knots; 8.2 m/s)
Visibility: 6 or more miles 10+ km)
Ceiling: at least 12,000 feet AGL
Clouds: few clouds at 2000 feet AGL
scattered clouds at 4000 feet AGL
Weather: no significant weather forecast for this period